createdAt,value
2018-11-04T00:00:29.811Z,2.0
2018-11-04T00:01:30.542Z,1.9
2018-11-04T00:02:31.248Z,1.9
2018-11-04T00:03:32.211Z,2.0
2018-11-04T00:04:32.922Z,2.0
2018-11-04T00:05:33.637Z,2.0
2018-11-04T00:06:34.349Z,1.9
2018-11-04T00:07:35.069Z,2.0
2018-11-04T00:08:35.791Z,2.1
2018-11-04T00:09:36.509Z,2.0
2018-11-04T00:10:37.225Z,2.1
2018-11-04T00:11:37.947Z,2.2
2018-11-04T00:12:38.664Z,2.2
2018-11-04T00:13:39.381Z,2.1
2018-11-04T00:14:40.101Z,2.1
2018-11-04T00:15:40.824Z,2.1
2018-11-04T00:16:41.528Z,2.2
2018-11-04T00:17:42.250Z,2.3
2018-11-04T00:18:42.989Z,2.3
2018-11-04T00:19:44.673Z,2.1
2018-11-04T00:20:46.666Z,2.2
2018-11-04T00:21:48.194Z,2.2
2018-11-04T00:22:49.841Z,2.2
2018-11-04T00:23:51.858Z,2.1
2018-11-04T00:24:53.224Z,2.1
2018-11-04T00:25:55.234Z,2.2
2018-11-04T00:26:57.315Z,2.2
2018-11-04T00:27:58.854Z,2.1
2018-11-04T00:29:00.551Z,2.2
2018-11-04T00:30:02.353Z,2.2
2018-11-04T00:31:03.990Z,2.1
2018-11-04T00:32:05.946Z,2.1
2018-11-04T00:33:07.939Z,2.1
2018-11-04T00:34:09.881Z,2.0
2018-11-04T00:35:12.178Z,2.1
2018-11-04T00:36:13.898Z,2.0
2018-11-04T00:37:15.697Z,2.0
2018-11-04T00:38:17.165Z,2.0
2018-11-04T00:39:19.090Z,1.9
2018-11-04T00:40:20.544Z,2.0
2018-11-04T00:41:22.406Z,1.9
2018-11-04T00:42:24.239Z,2.0
2018-11-04T00:43:26.912Z,2.1
2018-11-04T00:44:28.580Z,1.9
2018-11-04T00:45:31.102Z,1.9
2018-11-04T00:46:32.593Z,2.0
2018-11-04T00:47:34.236Z,1.9
2018-11-04T00:48:35.823Z,1.9
2018-11-04T00:49:37.270Z,2.0
2018-11-04T00:50:39.827Z,1.8
2018-11-04T00:51:40.743Z,1.8
2018-11-04T00:52:42.882Z,1.9
2018-11-04T00:53:44.750Z,1.9
2018-11-04T00:54:45.776Z,1.9
2018-11-04T00:55:47.862Z,1.9
2018-11-04T00:56:49.510Z,1.8
2018-11-04T00:57:51.227Z,1.9
2018-11-04T00:58:53.280Z,1.9
2018-11-04T00:59:54.915Z,1.8
2018-11-04T01:00:57.027Z,1.9
2018-11-04T01:01:58.814Z,1.9
2018-11-04T01:03:00.936Z,1.9
2018-11-04T01:04:02.917Z,1.9
2018-11-04T01:05:05.239Z,1.9
2018-11-04T01:06:06.954Z,1.9
2018-11-04T01:07:08.855Z,1.9
2018-11-04T01:08:10.907Z,1.9
2018-11-04T01:09:12.324Z,2.0
2018-11-04T01:10:13.892Z,2.0
2018-11-04T01:11:16.171Z,2.0
2018-11-04T01:12:17.409Z,2.0
2018-11-04T01:13:19.349Z,2.0
2018-11-04T01:14:21.324Z,2.0
2018-11-04T01:15:23.478Z,1.8
2018-11-04T01:16:24.393Z,1.9
2018-11-04T01:17:26.512Z,1.9
2018-11-04T01:18:28.405Z,1.9
2018-11-04T01:19:30.465Z,2.0
2018-11-04T01:20:32.394Z,2.0
2018-11-04T01:21:34.655Z,2.1
2018-11-04T01:22:36.666Z,2.1
2018-11-04T01:23:38.115Z,2.0
2018-11-04T01:24:40.438Z,2.1
2018-11-04T01:25:42.016Z,2.1
2018-11-04T01:26:44.247Z,2.1
2018-11-04T01:27:46.266Z,2.1
2018-11-04T01:28:48.163Z,2.0
2018-11-04T01:29:50.442Z,2.0
2018-11-04T01:30:52.405Z,2.1
2018-11-04T01:31:54.049Z,2.0
2018-11-04T01:32:55.824Z,2.1
2018-11-04T01:33:57.873Z,2.0
2018-11-04T01:35:00.451Z,2.1
2018-11-04T01:36:02.220Z,2.1
2018-11-04T01:37:04.154Z,2.1
2018-11-04T01:38:06.262Z,2.1
2018-11-04T01:39:08.298Z,2.1
2018-11-04T01:40:10.621Z,2.1
2018-11-04T01:41:12.401Z,2.2
2018-11-04T01:42:14.240Z,2.1
2018-11-04T01:44:18.326Z,2.2
2018-11-04T01:45:19.876Z,2.2
2018-11-04T01:46:21.580Z,2.1
2018-11-04T01:47:23.903Z,2.1
2018-11-04T01:48:25.772Z,2.2
2018-11-04T01:49:27.822Z,2.2
2018-11-04T01:50:29.994Z,2.2
2018-11-04T01:51:31.348Z,2.3
2018-11-04T01:52:32.818Z,2.3
2018-11-04T01:53:35.347Z,2.3
2018-11-04T01:54:36.946Z,2.3
2018-11-04T01:55:38.721Z,2.2
2018-11-04T01:56:40.866Z,2.3
2018-11-04T01:57:42.925Z,2.3
2018-11-04T01:58:45.507Z,2.2
2018-11-04T01:59:46.617Z,2.2
2018-11-04T02:00:48.028Z,2.3
2018-11-04T02:01:50.016Z,2.3
2018-11-04T02:02:52.388Z,2.3
2018-11-04T02:03:54.496Z,2.3
2018-11-04T02:04:56.730Z,2.3
2018-11-04T02:05:58.645Z,2.3
2018-11-04T02:06:59.862Z,2.2
2018-11-04T02:08:01.364Z,2.3
2018-11-04T02:09:03.225Z,2.2
2018-11-04T02:10:05.024Z,2.2
2018-11-04T02:11:07.068Z,2.2
2018-11-04T02:12:08.719Z,2.2
2018-11-04T02:13:10.899Z,2.2
2018-11-04T02:14:12.026Z,2.2
2018-11-04T02:15:14.348Z,2.2
2018-11-04T02:16:15.240Z,2.3
2018-11-04T02:17:15.963Z,2.3
2018-11-04T02:18:16.669Z,2.3
2018-11-04T02:19:17.397Z,2.2
2018-11-04T02:20:18.110Z,2.3
2018-11-04T02:21:18.815Z,2.2
2018-11-04T02:22:19.537Z,2.3
2018-11-04T02:23:20.257Z,2.3
2018-11-04T02:24:21.228Z,2.3
2018-11-04T02:25:22.000Z,2.3
2018-11-04T02:26:22.725Z,2.4
2018-11-04T02:27:23.436Z,2.3
2018-11-04T02:28:24.154Z,2.3
2018-11-04T02:29:24.936Z,2.4
2018-11-04T02:30:25.653Z,2.4
2018-11-04T02:31:26.368Z,2.4
2018-11-04T02:32:27.079Z,2.4
2018-11-04T02:33:27.799Z,2.5
2018-11-04T02:34:28.517Z,2.4
2018-11-04T02:35:29.227Z,2.4
2018-11-04T02:36:29.943Z,2.5
2018-11-04T02:37:30.661Z,2.4
2018-11-04T02:38:31.377Z,2.4
2018-11-04T02:39:32.350Z,2.5
2018-11-04T02:40:33.060Z,2.4
2018-11-04T02:41:33.785Z,2.4
2018-11-04T02:42:34.504Z,2.4
2018-11-04T02:43:35.219Z,2.5
2018-11-04T02:44:35.932Z,2.5
2018-11-04T02:45:36.649Z,2.5
2018-11-04T02:46:37.367Z,2.5
2018-11-04T02:47:38.092Z,2.6
2018-11-04T02:48:38.821Z,2.6
2018-11-04T02:49:39.547Z,2.6
2018-11-04T02:50:40.253Z,2.6
2018-11-04T02:51:41.034Z,2.6
2018-11-04T02:52:41.742Z,2.6
2018-11-04T02:53:42.474Z,2.7
2018-11-04T02:54:43.192Z,2.6
2018-11-04T02:55:43.905Z,2.6
2018-11-04T02:56:44.622Z,2.5
2018-11-04T02:57:45.331Z,2.6
2018-11-04T02:58:46.089Z,2.6
2018-11-04T02:59:46.801Z,2.6
2018-11-04T03:00:47.522Z,2.5
2018-11-04T03:01:48.266Z,2.5
2018-11-04T03:02:49.011Z,2.6
2018-11-04T03:03:49.727Z,2.5
2018-11-04T03:04:50.453Z,2.4
2018-11-04T03:05:51.156Z,2.4
2018-11-04T03:06:51.871Z,2.5
2018-11-04T03:07:52.647Z,2.5
2018-11-04T03:08:53.369Z,2.5
2018-11-04T03:09:54.342Z,2.5
2018-11-04T03:10:55.061Z,2.4
2018-11-04T03:11:55.775Z,2.4
2018-11-04T03:12:56.492Z,2.5
2018-11-04T03:13:57.467Z,2.4
2018-11-04T03:14:58.177Z,2.5
2018-11-04T03:15:58.897Z,2.4
2018-11-04T03:16:59.616Z,2.5
2018-11-04T03:18:00.336Z,2.5
2018-11-04T03:19:01.045Z,2.5
2018-11-04T03:20:01.767Z,2.4
2018-11-04T03:21:02.488Z,2.4
2018-11-04T03:22:03.212Z,2.4
2018-11-04T03:23:03.926Z,2.3
2018-11-04T03:24:04.638Z,2.3
2018-11-04T03:25:05.410Z,2.3
2018-11-04T03:26:06.124Z,2.3
2018-11-04T03:27:06.841Z,2.3
2018-11-04T03:28:07.587Z,2.3
2018-11-04T03:29:08.301Z,2.2
2018-11-04T03:30:09.032Z,2.3
2018-11-04T03:31:09.739Z,2.3
2018-11-04T03:32:10.697Z,2.2
2018-11-04T03:33:11.408Z,2.2
2018-11-04T03:34:12.145Z,2.3
2018-11-04T03:35:12.855Z,2.2
2018-11-04T03:36:13.574Z,2.2
2018-11-04T03:37:14.289Z,2.2
2018-11-04T03:38:14.997Z,2.2
2018-11-04T03:39:15.705Z,2.2
2018-11-04T03:40:16.429Z,2.2
2018-11-04T03:41:17.151Z,2.3
2018-11-04T03:42:17.862Z,2.2
2018-11-04T03:43:18.583Z,2.2
2018-11-04T03:44:19.300Z,2.3
2018-11-04T03:45:20.014Z,2.2
2018-11-04T03:46:20.737Z,2.2
2018-11-04T03:47:21.471Z,2.2
2018-11-04T03:48:22.438Z,2.1
2018-11-04T03:49:23.149Z,2.3
2018-11-04T03:50:23.905Z,2.2
2018-11-04T03:51:24.578Z,2.2
2018-11-04T03:52:25.599Z,2.2
2018-11-04T03:53:26.321Z,2.3
2018-11-04T03:54:27.044Z,2.2
2018-11-04T03:55:27.749Z,2.1
2018-11-04T03:56:28.462Z,2.2
2018-11-04T03:57:29.187Z,2.1
2018-11-04T03:58:29.899Z,2.2
2018-11-04T03:59:30.616Z,2.3
2018-11-04T04:00:31.346Z,2.2
2018-11-04T04:01:32.057Z,2.3
2018-11-04T04:02:32.773Z,2.2
2018-11-04T04:03:33.492Z,2.2
2018-11-04T04:04:34.212Z,2.3
2018-11-04T04:05:34.922Z,2.3
2018-11-04T04:06:35.648Z,2.3
2018-11-04T04:07:36.373Z,2.2
2018-11-04T04:08:37.090Z,2.3
2018-11-04T04:09:37.809Z,2.3
2018-11-04T04:10:38.519Z,2.3
2018-11-04T04:11:39.233Z,2.4
2018-11-04T04:12:39.953Z,2.3
2018-11-04T04:13:40.677Z,2.3
2018-11-04T04:14:41.390Z,2.3
2018-11-04T04:15:42.102Z,2.2
2018-11-04T04:16:42.816Z,2.3
2018-11-04T04:17:43.586Z,2.3
2018-11-04T04:18:44.293Z,2.2
2018-11-04T04:19:45.030Z,2.3
2018-11-04T04:20:45.724Z,2.3
2018-11-04T04:21:46.435Z,2.2
2018-11-04T04:22:47.205Z,2.2
2018-11-04T04:23:47.915Z,2.3
2018-11-04T04:24:48.628Z,2.2
2018-11-04T04:25:49.346Z,2.2
2018-11-04T04:26:50.061Z,2.2
2018-11-04T04:27:50.774Z,2.2
2018-11-04T04:28:51.534Z,2.2
2018-11-04T04:29:52.240Z,2.3
2018-11-04T04:30:52.962Z,2.3
2018-11-04T04:31:53.672Z,2.3
2018-11-04T04:32:54.405Z,2.3
2018-11-04T04:33:55.118Z,2.3
2018-11-04T04:34:55.835Z,2.3
2018-11-04T04:35:56.566Z,2.4
2018-11-04T04:36:57.273Z,2.4
2018-11-04T04:37:58.000Z,2.4
2018-11-04T04:38:58.714Z,2.5
2018-11-04T04:39:59.486Z,2.5
2018-11-04T04:41:00.196Z,2.5
2018-11-04T04:42:00.914Z,2.5
2018-11-04T04:43:01.873Z,2.6
2018-11-04T04:44:02.843Z,2.5
2018-11-04T04:45:03.618Z,2.6
2018-11-04T04:46:04.331Z,2.7
2018-11-04T04:47:05.057Z,2.7
2018-11-04T04:48:05.776Z,2.8
2018-11-04T04:49:06.494Z,2.7
2018-11-04T04:50:07.270Z,2.8
2018-11-04T04:51:07.976Z,2.9
2018-11-04T04:52:08.695Z,2.9
2018-11-04T04:53:09.410Z,3.0
2018-11-04T04:54:10.129Z,2.9
2018-11-04T04:55:10.841Z,3.1
2018-11-04T04:56:11.558Z,3.0
2018-11-04T04:57:12.267Z,3.0
2018-11-04T04:58:12.997Z,3.0
2018-11-04T04:59:13.800Z,3.0
2018-11-04T05:00:14.779Z,3.1
2018-11-04T05:01:16.032Z,3.1
2018-11-04T05:02:16.980Z,3.1
2018-11-04T05:03:17.939Z,3.1
2018-11-04T05:04:18.773Z,3.2
2018-11-04T05:05:20.014Z,3.1
2018-11-04T05:06:20.841Z,3.1
2018-11-04T05:07:21.805Z,3.2
2018-11-04T05:08:23.065Z,3.2
2018-11-04T05:09:23.867Z,3.3
2018-11-04T05:10:24.725Z,3.3
2018-11-04T05:11:25.949Z,3.4
2018-11-04T05:12:26.835Z,3.3
2018-11-04T05:13:28.017Z,3.4
2018-11-04T05:14:28.948Z,3.3
2018-11-04T05:15:29.797Z,3.4
2018-11-04T05:16:30.969Z,3.4
2018-11-04T05:17:31.805Z,3.4
2018-11-04T05:18:32.992Z,3.5
2018-11-04T05:19:33.877Z,3.6
2018-11-04T05:20:34.993Z,3.6
2018-11-04T05:21:35.763Z,3.6
2018-11-04T05:22:36.875Z,3.5
2018-11-04T05:23:38.032Z,3.6
2018-11-04T05:24:38.974Z,3.7
2018-11-04T05:25:39.765Z,3.7
2018-11-04T05:26:40.820Z,3.7
2018-11-04T05:27:41.943Z,3.6
2018-11-04T05:28:42.751Z,3.8
2018-11-04T05:29:43.957Z,3.7
2018-11-04T05:30:44.751Z,3.7
2018-11-04T05:31:45.567Z,3.8
2018-11-04T05:32:46.316Z,3.8
2018-11-04T05:33:47.439Z,3.9
2018-11-04T05:34:48.301Z,3.8
2018-11-04T05:35:49.435Z,3.9
2018-11-04T05:36:50.229Z,3.8
2018-11-04T05:37:50.988Z,3.9
2018-11-04T05:38:51.767Z,3.9
2018-11-04T05:39:53.005Z,3.9
2018-11-04T05:40:53.953Z,3.8
2018-11-04T05:41:54.773Z,4.0
2018-11-04T05:42:55.996Z,3.9
2018-11-04T05:43:56.833Z,4.0
2018-11-04T05:44:58.059Z,4.0
2018-11-04T05:45:59.046Z,4.0
2018-11-04T05:46:59.927Z,4.0
2018-11-04T05:48:00.765Z,4.0
2018-11-04T05:49:01.561Z,4.1
2018-11-04T05:50:02.314Z,4.2
2018-11-04T05:51:03.508Z,4.2
2018-11-04T05:52:04.312Z,4.3
2018-11-04T05:53:05.907Z,4.3
2018-11-04T05:54:06.743Z,4.3
2018-11-04T05:55:07.540Z,4.3
2018-11-04T05:56:08.320Z,4.4
2018-11-04T05:57:09.435Z,4.4
2018-11-04T05:58:10.280Z,4.3
2018-11-04T05:59:11.044Z,4.4
2018-11-04T06:00:11.818Z,4.5
2018-11-04T06:01:12.918Z,4.5
2018-11-04T06:02:13.791Z,4.6
2018-11-04T06:03:14.549Z,4.6
2018-11-04T06:04:15.334Z,4.5
2018-11-04T06:05:16.430Z,4.6
2018-11-04T06:06:17.236Z,4.7
2018-11-04T06:07:18.036Z,4.6
2018-11-04T06:08:18.852Z,4.7
2018-11-04T06:09:19.754Z,4.7
2018-11-04T06:10:20.922Z,4.7
2018-11-04T06:11:21.778Z,4.6
2018-11-04T06:12:23.060Z,4.7
2018-11-04T06:13:23.901Z,4.7
2018-11-04T06:14:24.875Z,4.7
2018-11-04T06:15:26.424Z,4.8
2018-11-04T06:16:27.258Z,4.8
2018-11-04T06:17:28.795Z,4.8
2018-11-04T06:18:30.766Z,4.8
2018-11-04T06:19:33.080Z,4.8
2018-11-04T06:20:34.976Z,4.8
2018-11-04T06:21:37.213Z,4.9
2018-11-04T06:22:39.280Z,4.8
2018-11-04T06:23:41.358Z,4.9
2018-11-04T06:24:43.853Z,4.9
2018-11-04T06:25:46.009Z,5.0
2018-11-04T06:26:47.973Z,5.0
2018-11-04T06:27:50.066Z,5.1
2018-11-04T06:28:51.505Z,5.0
2018-11-04T06:29:52.476Z,5.1
2018-11-04T06:30:53.309Z,5.1
2018-11-04T06:31:54.553Z,5.1
2018-11-04T06:32:55.396Z,5.2
2018-11-04T06:33:56.256Z,5.2
2018-11-04T06:34:57.888Z,5.2
2018-11-04T06:35:58.717Z,5.1
2018-11-04T06:36:59.973Z,5.2
2018-11-04T06:38:00.903Z,5.2
2018-11-04T06:39:01.765Z,5.2
2018-11-04T06:40:03.014Z,5.2
2018-11-04T06:41:03.873Z,5.2
2018-11-04T06:42:04.828Z,5.2
2018-11-04T06:43:06.085Z,5.2
2018-11-04T06:44:06.941Z,5.1
2018-11-04T06:45:07.785Z,5.1
2018-11-04T06:46:09.026Z,5.2
2018-11-04T06:47:10.154Z,5.2
2018-11-04T06:48:10.804Z,5.2
2018-11-04T06:49:12.025Z,5.2
2018-11-04T06:50:12.875Z,5.2
2018-11-04T06:51:14.070Z,5.3
2018-11-04T06:52:14.965Z,5.3
2018-11-04T06:53:15.860Z,5.4
2018-11-04T06:54:16.779Z,5.3
2018-11-04T06:55:18.008Z,5.4
2018-11-04T06:56:18.826Z,5.5
2018-11-04T06:57:20.005Z,5.4
2018-11-04T06:58:20.829Z,5.5
2018-11-04T06:59:22.066Z,5.4
2018-11-04T07:00:22.899Z,5.5
2018-11-04T07:01:23.997Z,5.5
2018-11-04T07:02:24.771Z,5.5
2018-11-04T07:03:25.543Z,5.5
2018-11-04T07:04:26.380Z,5.6
2018-11-04T07:05:27.485Z,5.6
2018-11-04T07:06:28.298Z,5.6
2018-11-04T07:07:29.463Z,5.6
2018-11-04T07:08:30.404Z,5.6
2018-11-04T07:09:31.268Z,5.6
2018-11-04T07:10:32.238Z,5.8
2018-11-04T07:11:33.485Z,5.7
2018-11-04T07:12:34.325Z,5.6
2018-11-04T07:13:35.544Z,5.7
2018-11-04T07:14:36.384Z,5.8
2018-11-04T07:15:37.363Z,5.7
2018-11-04T07:16:38.324Z,5.8
2018-11-04T07:17:39.575Z,5.8
2018-11-04T07:18:40.436Z,5.9
2018-11-04T07:19:41.403Z,5.9
2018-11-04T07:20:42.247Z,6.0
2018-11-04T07:21:43.463Z,5.9
2018-11-04T07:22:44.309Z,5.9
2018-11-04T07:23:45.547Z,5.9
2018-11-04T07:24:46.512Z,6.0
2018-11-04T07:25:47.469Z,6.0
2018-11-04T07:26:48.277Z,6.0
2018-11-04T07:27:49.461Z,6.0
2018-11-04T07:28:50.315Z,6.1
2018-11-04T07:29:51.270Z,6.1
2018-11-04T07:30:52.482Z,6.2
2018-11-04T07:31:53.373Z,6.1
2018-11-04T07:32:54.406Z,6.1
2018-11-04T07:33:55.524Z,6.1
2018-11-04T07:34:56.364Z,6.2
2018-11-04T07:35:57.491Z,6.2
2018-11-04T07:36:58.263Z,6.2
2018-11-04T07:37:59.060Z,6.2
2018-11-04T07:38:59.971Z,6.2
2018-11-04T07:40:00.747Z,6.3
2018-11-04T07:41:01.989Z,6.3
2018-11-04T07:42:02.811Z,6.3
2018-11-04T07:43:04.058Z,6.3
2018-11-04T07:44:04.994Z,6.5
2018-11-04T07:45:05.789Z,6.4
2018-11-04T07:46:06.865Z,6.4
2018-11-04T07:47:07.968Z,6.5
2018-11-04T07:48:08.784Z,6.5
2018-11-04T07:49:10.025Z,6.4
2018-11-04T07:50:10.899Z,6.5
2018-11-04T07:51:11.767Z,6.5
2018-11-04T07:52:13.037Z,6.6
2018-11-04T07:53:13.856Z,6.6
2018-11-04T07:54:15.011Z,6.6
2018-11-04T07:55:15.793Z,6.8
2018-11-04T07:56:16.918Z,6.7
2018-11-04T07:57:17.737Z,6.7
2018-11-04T07:58:18.931Z,6.8
2018-11-04T07:59:19.841Z,6.9
2018-11-04T08:00:20.730Z,6.8
2018-11-04T08:01:21.981Z,7.0
2018-11-04T08:02:22.880Z,6.9
2018-11-04T08:03:23.799Z,7.0
2018-11-04T08:04:25.014Z,7.1
2018-11-04T08:05:25.837Z,7.0
2018-11-04T08:06:27.060Z,7.1
2018-11-04T08:07:28.514Z,7.3
2018-11-04T08:08:29.359Z,7.2
2018-11-04T08:09:30.226Z,7.3
2018-11-04T08:10:31.474Z,7.4
2018-11-04T08:11:32.303Z,7.4
2018-11-04T08:12:33.250Z,7.4
2018-11-04T08:13:34.595Z,7.4
2018-11-04T08:14:35.369Z,7.4
2018-11-04T08:15:36.590Z,7.4
2018-11-04T08:16:37.404Z,7.5
2018-11-04T08:17:38.523Z,7.5
2018-11-04T08:18:39.339Z,7.7
2018-11-04T08:19:40.915Z,7.7
2018-11-04T08:20:41.980Z,7.7
2018-11-04T08:21:42.778Z,7.7
2018-11-04T08:22:44.027Z,7.8
2018-11-04T08:23:44.853Z,7.7
2018-11-04T08:24:45.829Z,7.8
2018-11-04T08:25:47.076Z,7.9
2018-11-04T08:26:47.912Z,7.9
2018-11-04T08:27:48.837Z,8.0
2018-11-04T08:28:50.001Z,8.0
2018-11-04T08:29:51.227Z,8.0
2018-11-04T08:30:52.367Z,8.0
2018-11-04T08:31:53.278Z,8.1
2018-11-04T08:32:54.395Z,8.1
2018-11-04T08:33:55.523Z,8.1
2018-11-04T08:34:56.315Z,8.1
2018-11-04T08:35:57.446Z,8.1
2018-11-04T08:36:58.296Z,8.1
2018-11-04T08:37:59.391Z,8.1
2018-11-04T08:39:00.524Z,8.1
2018-11-04T08:40:01.432Z,8.2
2018-11-04T08:41:02.465Z,8.2
2018-11-04T08:42:03.302Z,8.2
2018-11-04T08:43:04.326Z,8.2
2018-11-04T08:44:05.449Z,8.3
2018-11-04T08:45:06.242Z,8.4
2018-11-04T08:46:07.290Z,8.4
2018-11-04T08:47:08.504Z,8.3
2018-11-04T08:48:09.281Z,8.4
2018-11-04T08:49:10.395Z,8.3
2018-11-04T08:50:11.530Z,8.3
2018-11-04T08:51:12.304Z,8.5
2018-11-04T08:52:13.475Z,8.4
2018-11-04T08:53:14.280Z,8.5
2018-11-04T08:54:15.461Z,8.5
2018-11-04T08:55:16.258Z,8.6
2018-11-04T08:56:17.043Z,8.7
2018-11-04T08:57:17.800Z,8.7
2018-11-04T08:58:18.994Z,8.7
2018-11-04T08:59:19.791Z,8.7
2018-11-04T09:00:20.897Z,8.7
2018-11-04T09:01:22.025Z,8.8
2018-11-04T09:02:22.821Z,8.7
2018-11-04T09:03:23.927Z,8.8
2018-11-04T09:04:24.744Z,8.7
2018-11-04T09:05:25.541Z,8.7
2018-11-04T09:06:26.370Z,8.6
2018-11-04T09:07:27.446Z,8.7
2018-11-04T09:08:28.244Z,8.8
2018-11-04T09:09:29.460Z,8.8
2018-11-04T09:10:30.263Z,8.9
2018-11-04T09:11:31.050Z,8.9
2018-11-04T09:12:31.810Z,9.0
2018-11-04T09:13:32.951Z,9.1
2018-11-04T09:14:33.803Z,8.9
2018-11-04T09:15:35.019Z,9.1
2018-11-04T09:16:35.798Z,9.0
2018-11-04T09:17:36.896Z,9.0
2018-11-04T09:18:38.001Z,9.0
2018-11-04T09:19:38.796Z,9.1
2018-11-04T09:20:39.900Z,9.2
2018-11-04T09:21:41.103Z,9.2
2018-11-04T09:22:41.863Z,9.3
2018-11-04T09:23:42.991Z,9.3
2018-11-04T09:24:43.760Z,9.5
2018-11-04T09:25:44.803Z,9.4
2018-11-04T09:26:45.990Z,9.6
2018-11-04T09:27:46.798Z,9.6
2018-11-04T09:28:47.896Z,9.7
2018-11-04T09:29:48.928Z,9.7
2018-11-04T09:30:51.344Z,9.7
2018-11-04T09:31:52.310Z,9.7
2018-11-04T09:32:53.465Z,9.7
2018-11-04T09:33:54.318Z,9.8
2018-11-04T09:34:55.630Z,9.9
2018-11-04T09:35:56.800Z,9.9
2018-11-04T09:36:57.353Z,9.9
2018-11-04T09:37:58.315Z,10.0
2018-11-04T09:38:59.563Z,10.0
2018-11-04T09:40:00.431Z,10.0
2018-11-04T09:41:01.282Z,10.2
2018-11-04T09:42:02.234Z,10.2
2018-11-04T09:43:03.432Z,10.2
2018-11-04T09:44:04.401Z,10.2
2018-11-04T09:45:05.554Z,10.3
2018-11-04T09:46:06.360Z,10.3
2018-11-04T09:47:07.469Z,10.3
2018-11-04T09:48:08.258Z,10.3
2018-11-04T09:49:09.406Z,10.3
2018-11-04T09:50:10.531Z,10.3
2018-11-04T09:51:11.329Z,10.2
2018-11-04T09:52:12.371Z,10.3
2018-11-04T09:53:13.527Z,10.3
2018-11-04T09:54:14.338Z,10.4
2018-11-04T09:55:15.436Z,10.5
2018-11-04T09:56:16.350Z,10.6
2018-11-04T09:57:17.438Z,10.6
2018-11-04T09:58:18.539Z,10.8
2018-11-04T09:59:19.323Z,10.9
2018-11-04T10:00:20.431Z,10.9
2018-11-04T10:01:21.277Z,11.0
2018-11-04T10:02:22.387Z,11.0
2018-11-04T10:03:23.245Z,11.1
2018-11-04T10:04:24.335Z,11.2
2018-11-04T10:05:25.556Z,11.3
2018-11-04T10:06:26.360Z,11.4
2018-11-04T10:07:27.274Z,11.4
2018-11-04T10:08:28.303Z,11.5
2018-11-04T10:09:29.524Z,11.6
2018-11-04T10:10:30.425Z,11.7
2018-11-04T10:11:31.948Z,11.7
2018-11-04T10:12:33.035Z,11.7
2018-11-04T10:13:33.806Z,11.8
2018-11-04T10:14:35.008Z,11.8
2018-11-04T10:15:35.844Z,11.9
2018-11-04T10:16:37.413Z,11.9
2018-11-04T10:17:38.574Z,12.0
2018-11-04T10:18:39.447Z,11.9
2018-11-04T10:19:40.615Z,12.0
2018-11-04T10:20:41.608Z,11.9
2018-11-04T10:21:42.576Z,11.7
2018-11-04T10:22:43.892Z,11.9
2018-11-04T10:23:44.802Z,12.0
2018-11-04T10:24:46.089Z,12.0
2018-11-04T10:25:47.989Z,12.1
2018-11-04T10:26:49.962Z,12.1
2018-11-04T10:27:51.546Z,12.1
2018-11-04T10:28:53.057Z,12.1
2018-11-04T10:29:53.983Z,12.2
2018-11-04T10:30:54.839Z,12.2
2018-11-04T10:31:56.224Z,12.3
2018-11-04T10:32:58.120Z,12.4
2018-11-04T10:33:59.273Z,12.3
2018-11-04T10:35:00.242Z,12.5
2018-11-04T10:36:01.290Z,12.5
2018-11-04T10:37:02.533Z,12.6
2018-11-04T10:38:03.368Z,12.6
2018-11-04T10:39:04.567Z,12.6
2018-11-04T10:40:05.459Z,12.6
2018-11-04T10:41:06.323Z,12.6
2018-11-04T10:42:07.614Z,12.7
2018-11-04T10:43:08.398Z,12.8
2018-11-04T10:44:09.268Z,12.9
2018-11-04T10:45:10.558Z,12.6
2018-11-04T10:46:11.456Z,12.7
2018-11-04T10:47:12.346Z,12.8
2018-11-04T10:48:13.290Z,12.8
2018-11-04T10:49:14.493Z,12.9
2018-11-04T10:50:15.341Z,13.0
2018-11-04T10:51:16.265Z,12.9
2018-11-04T10:52:17.486Z,12.8
2018-11-04T10:53:18.312Z,12.9
2018-11-04T10:54:19.553Z,13.0
2018-11-04T10:55:20.381Z,12.9
2018-11-04T10:56:21.323Z,13.0
2018-11-04T10:57:22.512Z,13.0
2018-11-04T10:58:23.764Z,13.1
2018-11-04T10:59:24.996Z,13.1
2018-11-04T11:00:25.834Z,13.2
2018-11-04T11:01:26.731Z,13.2
2018-11-04T11:02:28.011Z,13.1
2018-11-04T11:03:28.832Z,13.2
2018-11-04T11:04:30.100Z,13.2
2018-11-04T11:05:30.891Z,13.3
2018-11-04T11:06:31.751Z,13.2
2018-11-04T11:07:33.070Z,13.2
2018-11-04T11:08:34.023Z,13.3
2018-11-04T11:09:34.877Z,13.2
2018-11-04T11:10:35.746Z,13.2
2018-11-04T11:11:36.996Z,13.2
2018-11-04T11:12:37.828Z,13.2
2018-11-04T11:13:38.763Z,13.2
2018-11-04T11:14:39.986Z,13.2
2018-11-04T11:15:40.867Z,13.3
2018-11-04T11:16:42.059Z,13.2
2018-11-04T11:17:42.888Z,13.2
2018-11-04T11:18:43.793Z,13.2
2018-11-04T11:19:44.739Z,13.3
2018-11-04T11:20:45.987Z,13.2
2018-11-04T11:21:46.809Z,13.2
2018-11-04T11:22:48.110Z,13.2
2018-11-04T11:23:48.922Z,13.2
2018-11-04T11:24:49.832Z,13.1
2018-11-04T11:25:50.755Z,13.1
2018-11-04T11:26:52.012Z,13.1
2018-11-04T11:27:53.623Z,13.3
2018-11-04T11:28:55.023Z,13.2
2018-11-04T11:29:56.717Z,13.2
2018-11-04T11:30:58.033Z,13.3
2018-11-04T11:31:59.323Z,13.3
2018-11-04T11:33:00.751Z,13.1
2018-11-04T11:34:02.096Z,13.0
2018-11-04T11:35:03.734Z,13.1
2018-11-04T11:36:05.266Z,13.1
2018-11-04T11:37:07.285Z,13.2
2018-11-04T11:38:08.798Z,13.2
2018-11-04T11:39:10.077Z,13.2
2018-11-04T11:40:11.466Z,13.3
2018-11-04T11:41:12.347Z,13.4
2018-11-04T11:42:13.227Z,13.4
2018-11-04T11:43:14.472Z,13.5
2018-11-04T11:44:15.326Z,13.6
2018-11-04T11:45:16.539Z,13.6
2018-11-04T11:46:17.448Z,13.6
2018-11-04T11:47:18.352Z,13.6
2018-11-04T11:48:19.252Z,13.7
2018-11-04T11:49:20.497Z,13.7
2018-11-04T11:50:21.373Z,13.8
2018-11-04T11:51:22.238Z,13.8
2018-11-04T11:52:23.505Z,13.8
2018-11-04T11:53:24.380Z,13.8
2018-11-04T11:54:25.275Z,13.8
2018-11-04T11:55:26.525Z,13.7
2018-11-04T11:56:27.370Z,13.8
2018-11-04T11:57:28.305Z,13.8
2018-11-04T11:58:29.278Z,13.8
2018-11-04T11:59:30.522Z,13.8
2018-11-04T12:00:31.380Z,13.7
2018-11-04T12:01:32.241Z,13.8
2018-11-04T12:02:33.471Z,13.8
2018-11-04T12:03:34.375Z,13.8
2018-11-04T12:04:35.965Z,13.8
2018-11-04T12:05:36.814Z,13.8
2018-11-04T12:06:38.042Z,13.8
2018-11-04T12:07:38.868Z,13.8
2018-11-04T12:08:39.755Z,13.8
2018-11-04T12:09:41.357Z,13.8
2018-11-04T12:10:42.845Z,13.8
2018-11-04T12:11:44.077Z,13.8
2018-11-04T12:12:44.940Z,13.8
2018-11-04T12:13:46.164Z,13.8
2018-11-04T12:14:48.387Z,13.7
2018-11-04T12:15:50.881Z,13.8
2018-11-04T12:16:53.358Z,13.8
2018-11-04T12:17:55.428Z,13.8
2018-11-04T12:18:57.431Z,13.8
2018-11-04T12:19:58.438Z,13.8
2018-11-04T12:20:59.292Z,13.7
2018-11-04T12:22:00.504Z,13.8
2018-11-04T12:23:01.340Z,13.9
2018-11-04T12:24:02.878Z,13.8
2018-11-04T12:25:03.735Z,13.8
2018-11-04T12:26:06.672Z,13.9
2018-11-04T12:27:07.375Z,13.9
2018-11-04T12:28:08.484Z,13.9
2018-11-04T12:29:09.264Z,13.9
2018-11-04T12:30:10.047Z,14.0
2018-11-04T12:31:10.886Z,14.0
2018-11-04T12:32:12.008Z,14.0
2018-11-04T12:33:12.801Z,14.0
2018-11-04T12:34:13.902Z,14.0
2018-11-04T12:35:15.118Z,13.9
2018-11-04T12:36:15.873Z,14.1
2018-11-04T12:37:17.003Z,14.1
2018-11-04T12:38:18.286Z,14.1
2018-11-04T12:39:19.524Z,14.1
2018-11-04T12:40:20.308Z,14.1
2018-11-04T12:41:21.453Z,14.0
2018-11-04T12:42:22.352Z,14.0
2018-11-04T12:43:23.502Z,14.1
2018-11-04T12:44:24.302Z,14.1
2018-11-04T12:45:25.522Z,14.1
2018-11-04T12:46:26.676Z,14.1
2018-11-04T12:47:28.059Z,14.0
2018-11-04T12:48:29.203Z,14.1
2018-11-04T12:49:30.324Z,13.9
2018-11-04T12:50:31.524Z,14.0
2018-11-04T12:51:32.374Z,13.9
2018-11-04T12:52:33.342Z,13.9
2018-11-04T12:53:34.595Z,13.8
2018-11-04T12:54:36.063Z,13.8
2018-11-04T12:55:37.273Z,13.9
2018-11-04T12:56:39.368Z,13.9
2018-11-04T12:57:41.889Z,13.8
2018-11-04T12:58:43.989Z,13.8
2018-11-04T12:59:45.901Z,13.8
2018-11-04T13:00:47.860Z,13.8
2018-11-04T13:01:50.028Z,13.8
2018-11-04T13:02:52.446Z,13.7
2018-11-04T13:03:53.430Z,13.8
2018-11-04T13:04:54.529Z,13.8
2018-11-04T13:05:55.328Z,13.8
2018-11-04T13:06:56.496Z,13.7
2018-11-04T13:07:57.930Z,13.8
2018-11-04T13:08:58.793Z,13.8
2018-11-04T13:10:00.020Z,13.8
2018-11-04T13:11:00.830Z,13.9
2018-11-04T13:12:01.925Z,13.8
2018-11-04T13:13:02.763Z,13.9
2018-11-04T13:14:03.810Z,13.9
2018-11-04T13:15:04.656Z,14.0
2018-11-04T13:16:05.464Z,13.9
2018-11-04T13:17:06.580Z,13.9
2018-11-04T13:18:07.508Z,14.0
2018-11-04T13:19:08.291Z,14.0
2018-11-04T13:20:09.237Z,14.0
2018-11-04T13:21:10.311Z,14.0
2018-11-04T13:22:12.278Z,13.9
2018-11-04T13:23:13.931Z,13.9
2018-11-04T13:24:15.846Z,13.9
2018-11-04T13:25:16.888Z,13.9
2018-11-04T13:26:17.830Z,13.9
2018-11-04T13:27:18.951Z,13.9
2018-11-04T13:28:20.338Z,13.9
2018-11-04T13:29:21.545Z,13.8
2018-11-04T13:30:22.924Z,13.8
2018-11-04T13:31:24.738Z,13.7
2018-11-04T13:32:26.900Z,13.7
2018-11-04T13:33:27.967Z,13.7
2018-11-04T13:34:28.829Z,13.8
2018-11-04T13:35:30.032Z,13.8
2018-11-04T13:36:31.473Z,13.7
2018-11-04T13:37:32.983Z,13.7
2018-11-04T13:38:33.775Z,13.7
2018-11-04T13:39:34.950Z,13.7
2018-11-04T13:40:36.499Z,13.7
2018-11-04T13:41:37.295Z,13.7
2018-11-04T13:42:38.408Z,13.6
2018-11-04T13:43:39.626Z,13.6
2018-11-04T13:44:41.072Z,13.7
2018-11-04T13:45:43.918Z,13.7
2018-11-04T13:46:44.884Z,13.7
2018-11-04T13:47:46.230Z,13.6
2018-11-04T13:48:47.277Z,13.6
2018-11-04T13:49:48.607Z,13.6
2018-11-04T13:50:49.513Z,13.5
2018-11-04T13:51:50.275Z,13.6
2018-11-04T13:52:51.504Z,13.5
2018-11-04T13:53:52.324Z,13.5